Extreme hitte van: 21-07-2018 07:15 tot: 22-07-2018 23:59 waarschuwing voor: Extreme hitte niveau: Geel info button

Bezoek onze andere website:

Meteotemplate

Home Weather Station

Saratoga


Lokaal brand risico:
CBI


Regionaal brand risico: Meer informatie



METAR rapporten vliegvelden

   
EBBR - Brussels
Gewijzigd: Jul 21 2018 7:20 am
Helder  
Helder  
   Wind: WNW 7.4 km/h
Wind: WNW 7.4 km/h
Temperatuur: 18°C
Dauwpunt: 15°C
Vochtigheid: 83%
Barometer: 1012 mb
Zicht: meer dan 10 km
Bewolking: Helder
EBBR 210520Z 30004KT CAVOK 18/15 Q1012 NOSIG
EBAW - Antwerp
Gewijzigd: Jul 21 2018 7:20 am
Helder  
Helder  
   Wind: varieert 1.9 km/h
Wind: varieert 1.9 km/h
Temperatuur: 20°C
Dauwpunt: 16°C
Vochtigheid: 78%
Barometer: 1011 mb
Zicht: meer dan 10 km
Bewolking: Helder
EBAW 210520Z VRB01KT CAVOK 20/16 Q1011 NOSIG
EHBK - Maastricht
Gewijzigd: Jul 21 2018 7:25 am
Gedeeltelijk bewolkt  
Gedeeltelijk bewolkt  
   Wind: WZW 5.6 km/h
Wind: WZW 5.6 km/h
Temperatuur: 19°C
Dauwpunt: 14°C
Vochtigheid: 73%
Barometer: 1011 mb
Bewolking: Gedeeltelijk bewolkt
Zicht: meer dan 10 km
Bewolking: Gedeeltelijk bewolkt
EHBK 210525Z AUTO 24003KT 220V280 9999 NSC 19/14 Q1011 NOSIG
EDLV - Nijmegen
Gewijzigd: Jul 21 2018 7:20 am
Helder  
Helder  
   Wind: varieert 1.9 km/h
Wind: varieert 1.9 km/h
Temperatuur: 18°C
Dauwpunt: 16°C
Vochtigheid: 88%
Barometer: 1011 mb
Zicht: meer dan 10 km
Bewolking: Helder
EDLV 210520Z VRB01KT CAVOK 18/16 Q1011
EHRD - Rotterdam
Gewijzigd: Jul 21 2018 7:25 am
Helder  
Helder  
   Wind: WNW 7.4 km/h
Wind: WNW 7.4 km/h
Temperatuur: 18°C
Dauwpunt: 15°C
Vochtigheid: 83%
Barometer: 1011 mb
Bewolking: Helder
Zicht: meer dan 10 km
Bewolking: Helder
EHRD 210525Z AUTO 30004KT 260V360 9999 NCD 18/15 Q1011 NOSIG
 

Script ontwikkeld door  Saratoga-weather.org Aangepast voor de template door  Weerstation Leuven

U vindt ons ook hier:

UK Metoffice

European Weather Network

WeatherCloud

Weather Underground

Benelux Weer Netwerk

AWEKAS

Citizen Weather Observer Program (CWOP)

Apparatuur in gebruik:

Weerstation
Davis VP2

Weerprogramma
Meteobridge

Davis VP2

Meteobridge